Latest Coastal Weather Observations for Mackay

IDQ60701

Issued at 7:12 am EST Thursday 24 August 2017 (issued every 10 minutes, with the page automatically refreshed every 10 minutes)

About coastal observations | Map of coastal stations | Coastal observations for QLD | Marine services | Other Formats
Station Details ID: 033119 Name: MACKAY M.O Lat: -21.12 Lon: 149.22 Height: 30.26 m
Data from the previous 72 hours. | See also: Recent months at Mackay
Date/Time
EST
Temp
°C
Wind Pressure Rain since
9am
mm
Weather Cloud Vis
km
Sea
Height
m
Swell
Dir  Spd
kts
Gust
kts
hPa Trend Height
m
Period
s
Dir
24/07:00am 15.2 WSW 7 9 1017.5 - 0.0 - Partly cloudy - - - - -
24/06:30am 14.8 WSW 6 8 1017.4 - 0.0 - - - - - - -
24/06:00am 14.8 WSW 6 7 1017.0 F 0.0 - - - - - - -
24/05:30am 15.2 WSW 6 7 1016.9 - 0.0 - - - - - - -
24/05:00am 15.4 WSW 6 6 1016.7 - 0.0 - - - - - - -
24/04:30am 15.7 WSW 6 7 1016.8 - 0.0 - - - - - - -
24/04:00am 16.1 WSW 6 7 1016.9 - 0.0 - - - - - - -
24/03:30am 16.0 WSW 5 7 1017.1 - 0.0 - - - - - - -
24/03:00am 16.1 WSW 6 7 1017.4 - 0.0 - - - - - - -
24/02:30am 16.6 WSW 6 7 1017.6 - 0.0 - - - - - - -
24/02:00am 16.6 WSW 6 7 1018.0 - 0.0 - - - - - - -
24/01:30am 16.8 WSW 5 6 1018.2 - 0.0 - Partly cloudy - - - - -
24/01:00am 16.9 WSW 6 6 1018.3 - 0.0 - - - - - - -
24/12:30am 17.1 WSW 5 6 1018.6 - 0.0 - Partly cloudy - - - - -
24/12:00am 17.4 WSW 5 6 1018.8 - 0.0 - Mostly cloudy - - - - -
 
Date/Time
EST
Temp
°C
Wind Pressure Rain since
9am
mm
Weather Cloud Vis
km
Sea
Height
m
Swell
Dir  Spd
kts
Gust
kts
hPa Trend Height
m
Period
s
Dir
23/11:30pm 17.6 WSW 6 7 1019.0 - 0.0 - Partly cloudy - - - - -
23/11:00pm 17.8 WSW 5 6 1019.1 - 0.0 - Partly cloudy - - - - -
23/10:30pm 18.2 SW 5 5 1018.9 - 0.0 - Partly cloudy - - - - -
23/10:00pm 19.1 CALM 0 0 1018.6 - 0.0 - - - - - - -
23/09:30pm 18.7 CALM 0 0 1018.6 - 0.0 - - - - - - -
23/09:00pm 19.2 CALM 0 0 1018.6 F 0.0 - - - - - - -
23/08:30pm 19.7 NE 1 3 1018.6 - 0.0 - - - - - - -
23/08:00pm 19.8 CALM 0 0 1018.5 - 0.0 - - - - - - -
23/07:30pm 20.0 NE 3 4 1018.2 - 0.0 - - - - - - -
23/07:00pm 20.3 ENE 3 5 1018.1 - 0.0 - - - - - - -
23/06:30pm 20.8 ENE 4 6 1018.1 - 0.0 - - - - - - -
23/06:00pm 21.2 E 5 7 1017.7 F 0.0 - - - - - - -
23/05:30pm 21.6 E 5 6 1017.6 - 0.0 - - - - - - -
23/05:00pm 22.7 ENE 4 7 1017.5 - 0.0 - - - - - - -
23/04:30pm 23.5 ENE 5 7 1017.4 - 0.0 - - - - - - -
23/04:00pm 23.9 ENE 4 7 1017.5 - 0.0 - - - - - - -
23/03:30pm 25.2 NNE 4 7 1017.5 - 0.0 - - - - - - -
23/03:00pm 24.9 NE 4 6 1017.6 R 0.0 - - - - - - -
23/02:30pm 24.5 NE 6 9 1017.7 - 0.0 - - - - - - -
23/02:00pm 25.9 NE 5 8 1018.0 - 0.0 - - - - - - -
23/01:30pm 27.4 NNE 5 9 1018.1 - 0.0 - - - - - - -
23/01:00pm 25.6 ENE 6 10 1018.3 - 0.0 - - - - - - -
23/12:30pm 26.9 ENE 6 10 1018.7 - 0.0 - - - - - - -
23/12:00pm 26.9 NNE 6 11 1019.1 F 0.0 - - - - - - -
23/11:30am 24.6 E 7 9 1019.6 - 0.0 - - - - - - -
23/11:00am 23.6 E 7 9 1020.1 - 0.0 - - - - - - -
23/10:30am 23.9 E 7 9 1020.4 - 0.0 - - - - - - -
23/10:00am 23.9 ENE 6 8 1020.5 - 0.0 - Partly cloudy - - - - -
23/09:30am 24.6 ENE 4 8 1020.6 - 0.0 - Partly cloudy - - - - -
23/09:00am 22.2 WSW 2 5 1020.4 F 0.0 - - - - - - -
23/08:30am 20.4 SW 4 5 1020.3 - 0.0 - - - - - - -
23/08:00am 19.1 SW 5 6 1020.1 - 0.0 - - - - - - -
23/07:30am 17.5 WSW 5 6 1019.8 - 0.0 - - - - - - -
23/07:00am 16.5 WSW 6 7 1019.3 - 0.0 - - - - - - -
23/06:30am 16.4 WSW 6 7 1019.2 - 0.0 - - - - - - -
23/06:00am 16.7 WSW 5 6 1019.1 S 0.0 - - - - - - -
23/05:30am 17.0 WSW 5 6 1018.9 - 0.0 - Partly cloudy - - - - -
23/05:00am 16.8 SW 5 6 1018.8 - 0.0 - Cloudy - - - - -
23/04:30am 16.5 WSW 5 6 1018.7 - 0.0 - Partly cloudy - - - - -
23/04:00am 16.9 WSW 4 5 1018.7 - 0.0 - - - - - - -
23/03:30am 17.3 N 2 5 1018.7 - 0.0 - - - - - - -
23/03:00am 18.4 N 3 5 1018.6 - 0.0 - - - - - - -
23/02:30am 18.8 N 3 6 1018.8 - 0.0 - - - - - - -
23/02:00am 19.3 N 4 6 1019.0 - 0.0 - - - - - - -
23/01:30am 19.6 N 4 6 1019.2 - 0.0 - Partly cloudy - - - - -
23/01:00am 19.6 N 4 6 1019.4 - 0.0 - Partly cloudy - - - - -
23/12:30am 19.5 N 5 6 1019.7 - 0.0 - Partly cloudy - - - - -
23/12:00am 19.8 N 5 6 1019.9 - 0.0 - Partly cloudy - - - - -
 
Date/Time
EST
Temp
°C
Wind Pressure Rain since
9am
mm
Weather Cloud Vis
km
Sea
Height
m
Swell
Dir  Spd
kts
Gust
kts
hPa Trend Height
m
Period
s
Dir
22/11:30pm 20.0 N 5 7 1019.9 - 0.0 - - - - - - -
22/11:00pm 20.2 N 5 7 1019.9 - 0.0 - - - - - - -
22/10:30pm 20.2 NNE 5 9 1019.6 - 0.0 - - - - - - -
22/10:00pm 19.9 NNE 4 8 1019.6 - 0.0 - - - - - - -
22/09:30pm 19.5 N 4 6 1019.6 - 0.0 - - - - - - -
22/09:00pm 19.6 NNE 4 7 1019.6 R 0.0 - - - - - - -
22/08:30pm 19.7 NNE 4 6 1019.4 - 0.0 - - - - - - -
22/08:00pm 19.5 NNE 4 6 1019.0 - 0.0 - - - - - - -
22/07:30pm 19.8 NNE 4 7 1018.7 - 0.0 - - - - - - -
22/07:00pm 20.2 NNE 4 6 1018.3 - 0.0 - - - - - - -
22/06:30pm 20.7 NNE 5 7 1017.9 - 0.0 - - - - - - -
22/06:00pm 21.1 NNE 4 8 1017.5 R 0.0 - - - - - - -
22/05:30pm 22.0 NE 6 9 1017.3 - 0.0 - - - - - - -
22/05:00pm 23.3 NE 7 11 1017.0 - 0.0 - - - - - - -
22/04:30pm 24.3 NE 7 11 1016.7 - 0.0 - - - - - - -
22/04:00pm 25.1 NE 7 13 1016.5 - 0.0 - - - - - - -
22/03:30pm 25.7 NE 6 10 1016.5 - 0.0 - - - - - - -
22/03:00pm 25.7 NE 7 10 1016.5 R 0.0 - - - - - - -
22/02:30pm 26.1 NE 7 12 1016.6 - 0.0 - - - - - - -
22/02:00pm 25.6 NE 7 11 1016.8 - 0.0 - - - - - - -
22/01:30pm 25.6 NE 6 11 1017.3 - 0.0 - - - - - - -
22/01:00pm 25.2 ENE 7 11 1017.6 - 0.0 - - - - - - -
22/12:30pm 25.1 ENE 7 10 1017.9 - 0.0 - - - - - - -
22/12:00pm 24.2 ENE 7 10 1018.2 F 0.0 - - - - - - -
22/11:30am 25.0 ENE 6 8 1018.7 - 0.0 - - - - - - -
22/11:00am 25.1 ENE 6 10 1019.1 - 0.0 - - - - - - -
22/10:30am 23.2 E 6 8 1019.3 - 0.0 - Partly cloudy - - - - -
22/10:00am 23.1 ESE 5 7 1019.5 - 0.0 - - - - - - -
22/09:30am 22.7 SE 4 6 1019.5 - 0.0 - - - - - - -
22/09:00am 22.0 SSW 4 7 1019.5 F 0.0 - - - - - - -
22/08:30am 20.2 SW 4 7 1019.5 - 0.0 - - - - - - -
22/08:00am 18.6 WSW 4 5 1019.4 - 0.0 - - - - - - -
22/07:30am 17.0 WSW 6 8 1019.3 - 0.0 - Partly cloudy - - - - -
22/07:00am 15.6 WSW 6 8 1019.1 - 0.0 - Partly cloudy - - - - -
22/06:30am 14.9 SW 7 9 1018.8 - 0.0 - Partly cloudy - - - - -
22/06:00am 14.9 WSW 8 10 1018.4 R 0.0 - - - - - - -
22/05:30am 14.9 SW 7 8 1017.9 - 0.0 - Partly cloudy - - - - -
22/05:00am 15.0 WSW 7 9 1017.6 - 0.0 - Partly cloudy - - - - -
22/04:30am 15.2 WSW 7 9 1017.3 - 0.0 - - - - - - -
22/04:00am 15.8 WSW 6 8 1017.2 - 0.0 - Partly cloudy - - - - -
22/03:30am 16.1 SW 5 6 1017.3 - 0.0 - - - - - - -
22/03:00am 16.2 W 5 6 1017.3 - 0.0 - - - - - - -
22/02:30am 15.8 WSW 5 6 1017.6 - 0.0 - - - - - - -
22/02:00am 15.8 WSW 5 6 1018.1 - 0.0 - - - - - - -
22/01:30am 16.2 SW 5 6 1018.4 - 0.0 - Partly cloudy - - - - -
22/01:00am 16.8 WSW 5 7 1018.6 - 0.0 - Partly cloudy - - - - -
22/12:30am 16.7 WSW 6 7 1018.9 - 0.0 - Partly cloudy - - - - -
22/12:00am 16.8 WSW 6 7 1019.1 - 0.0 - - - - - - -
 
Date/Time
EST
Temp
°C
Wind Pressure Rain since
9am
mm
Weather Cloud Vis
km
Sea
Height
m
Swell
Dir  Spd
kts
Gust
kts
hPa Trend Height
m
Period
s
Dir
21/11:30pm 17.0 W 4 5 1019.2 - 0.0 - - - - - - -
21/11:00pm 17.2 WSW 3 5 1019.4 - 0.0 - - - - - - -
21/10:30pm 17.7 NW 2 5 1019.5 - 0.0 - - - - - - -
21/10:00pm 18.8 NE 4 7 1019.3 - 0.0 - - - - - - -
21/09:30pm 19.5 NE 4 7 1019.2 - 0.0 - Partly cloudy - - - - -
21/09:00pm 20.4 ENE 7 9 1019.1 F 0.0 - Cloudy - - - - -
21/08:30pm 20.0 ENE 7 11 1018.9 - 0.0 - Partly cloudy - - - - -
21/08:00pm 20.2 E 7 11 1018.7 - 0.0 - - - - - - -
21/07:30pm 19.9 ENE 7 11 1018.4 - 0.0 - - - - - - -
21/07:00pm 20.2 E 9 13 1018.3 - 0.0 - - - - - - -
21/06:30pm 20.7 E 8 11 1018.1 - 0.0 - - - - - - -
21/06:00pm 20.4 ESE 6 9 1017.9 R 0.0 - Partly cloudy - - - - -
21/05:30pm 20.5 SE 5 8 1017.8 - 0.0 - Partly cloudy - - - - -
21/05:00pm 21.1 SE 6 10 1017.6 - 0.0 - Partly cloudy - - - - -
21/04:30pm 22.1 SE 7 12 1017.4 - 0.0 - Partly cloudy - - - - -
21/04:00pm 22.2 SE 7 13 1017.3 - 0.0 - - - - - - -
21/03:30pm 22.8 SE 8 12 1017.3 - 0.0 - Partly cloudy - - - - -
21/03:00pm 22.0 SSE 9 13 1017.2 R 0.0 - - - - - - -
21/02:30pm 23.0 SSE 9 14 1017.2 - 0.0 - Partly cloudy - - - - -
21/02:00pm 21.9 SE 8 14 1017.5 - 0.0 - Partly cloudy - - - - -
21/01:30pm 22.9 SSE 9 17 1017.8 - 0.0 - Partly cloudy - - - - -
21/01:00pm 22.0 SSE 10 15 1018.3 - 0.0 - Partly cloudy - - - - -
21/12:30pm 22.2 SSE 10 16 1018.7 - 0.0 - Partly cloudy - - - - -
21/12:00pm 21.4 SSE 10 16 1019.0 F 0.0 - Cloudy - - - - -
21/11:30am 21.5 S 8 13 1019.5 - 0.0 - Partly cloudy - - - - -
21/11:00am 21.0 S 9 15 1020.1 - 0.0 - Partly cloudy - - - - -
21/10:30am 20.2 S 9 13 1020.3 - 0.0 - Partly cloudy - - - - -
21/10:00am 19.2 SSW 7 11 1020.4 - 0.0 - Partly cloudy - - - - -
21/09:30am 18.0 SW 8 12 1020.4 - 0.0 - Partly cloudy - - - - -
21/09:00am 16.5 SW 6 9 1020.1 R 0.0 - Cloudy - - - - -
21/08:30am 15.8 WSW 7 10 1019.8 - 0.0 - Partly cloudy - - - - -
21/08:00am 14.9 SW 7 11 1019.6 - 0.0 - Partly cloudy - - - - -
21/07:30am 13.4 WSW 8 11 1019.2 - 0.0 - Partly cloudy - - - - -

Other Formats:

Comma delimited format used in spreadsheet applications
http://www.bom.gov.au/fwo/IDQ60701/IDQ60701.94367.axf

JavaScript Object Notation format (JSON) in row-major order
http://www.bom.gov.au/fwo/IDQ60701/IDQ60701.94367.json